createdAt,value
2022-10-02T00:00:42.302Z,2.80
2022-10-02T00:03:17.199Z,2.50
2022-10-02T00:06:06.885Z,2.83
2022-10-02T00:08:39.013Z,3.50
2022-10-02T00:11:14.891Z,2.58
2022-10-02T00:13:48.780Z,1.95
2022-10-02T00:16:29.460Z,2.13
2022-10-02T00:18:57.640Z,1.60
2022-10-02T00:21:45.373Z,2.78
2022-10-02T00:27:10.131Z,2.33
2022-10-02T00:29:49.866Z,2.03
2022-10-02T00:32:20.236Z,1.98
2022-10-02T00:35:22.205Z,1.90
2022-10-02T00:37:57.445Z,1.80
2022-10-02T00:40:43.288Z,2.03
2022-10-02T00:43:30.016Z,2.65
2022-10-02T00:46:35.432Z,1.60
2022-10-02T00:49:21.193Z,3.00
2022-10-02T00:52:06.716Z,2.20
2022-10-02T00:54:53.258Z,1.85
2022-10-02T00:57:56.064Z,1.65
2022-10-02T01:00:23.770Z,2.35
2022-10-02T01:03:03.369Z,2.00
2022-10-02T01:05:31.261Z,2.67
2022-10-02T01:07:59.396Z,1.80
2022-10-02T01:10:28.686Z,2.50
2022-10-02T01:12:57.709Z,2.40
2022-10-02T01:15:31.993Z,2.42
2022-10-02T01:18:02.190Z,1.92
2022-10-02T01:20:36.554Z,2.13
2022-10-02T01:23:04.108Z,3.17
2022-10-02T01:25:32.358Z,2.90
2022-10-02T01:28:00.225Z,2.38
2022-10-02T01:30:30.077Z,2.53
2022-10-02T01:33:00.604Z,2.85
2022-10-02T01:35:33.821Z,2.25
2022-10-02T01:38:06.400Z,2.90
2022-10-02T01:40:36.562Z,3.53
2022-10-02T01:43:12.741Z,2.30
2022-10-02T01:46:23.938Z,2.30
2022-10-02T01:49:14.504Z,2.22
2022-10-02T01:51:53.664Z,2.65
2022-10-02T01:54:45.700Z,2.47
2022-10-02T01:57:33.285Z,2.33
2022-10-02T02:00:15.797Z,2.28
2022-10-02T02:03:02.328Z,2.45
2022-10-02T02:06:02.798Z,2.50
2022-10-02T02:08:40.742Z,3.00
2022-10-02T02:13:41.289Z,2.53
2022-10-02T02:16:32.422Z,2.45
2022-10-02T02:19:12.461Z,1.90
2022-10-02T02:21:47.382Z,2.50
2022-10-02T02:24:38.615Z,2.90
2022-10-02T02:27:11.446Z,2.53
2022-10-02T02:29:43.317Z,3.22
2022-10-02T02:32:16.336Z,3.05
2022-10-02T02:34:54.309Z,2.28
2022-10-02T02:39:54.949Z,2.33
2022-10-02T02:42:26.365Z,2.53
2022-10-02T02:44:58.123Z,3.35
2022-10-02T02:47:49.019Z,2.70
2022-10-02T02:50:47.506Z,3.00
2022-10-02T02:53:19.768Z,2.20
2022-10-02T02:55:53.452Z,2.70
2022-10-02T02:58:36.079Z,2.40
2022-10-02T03:01:03.858Z,3.20
2022-10-02T03:03:31.589Z,3.17
2022-10-02T03:06:26.303Z,3.08
2022-10-02T03:08:54.953Z,2.38
2022-10-02T03:11:30.687Z,2.88
2022-10-02T03:14:14.566Z,2.65
2022-10-02T03:17:03.260Z,2.30
2022-10-02T03:19:50.798Z,2.75
2022-10-02T03:22:41.215Z,2.58
2022-10-02T03:25:21.558Z,3.20
2022-10-02T03:28:02.323Z,2.83
2022-10-02T03:30:31.706Z,2.40
2022-10-02T03:33:01.199Z,3.28
2022-10-02T03:35:30.467Z,2.53
2022-10-02T03:38:02.312Z,2.72
2022-10-02T03:40:30.307Z,3.05
2022-10-02T03:42:58.360Z,2.53
2022-10-02T03:48:15.001Z,2.95
2022-10-02T03:50:42.842Z,2.25
2022-10-02T03:53:16.346Z,2.70
2022-10-02T03:55:55.412Z,3.00
2022-10-02T03:58:24.222Z,2.75
2022-10-02T04:01:03.752Z,3.17
2022-10-02T04:03:36.039Z,2.80
2022-10-02T04:06:03.977Z,2.53
2022-10-02T04:09:03.100Z,2.78
2022-10-02T04:11:40.652Z,2.65
2022-10-02T04:14:19.810Z,2.30
2022-10-02T04:17:05.863Z,2.80
2022-10-02T04:19:53.613Z,2.15
2022-10-02T04:22:34.686Z,2.60
2022-10-02T04:25:19.908Z,2.17
2022-10-02T04:27:53.291Z,3.10
2022-10-02T04:30:21.998Z,2.58
2022-10-02T04:32:50.698Z,2.90
2022-10-02T04:35:36.665Z,2.50
2022-10-02T04:38:10.415Z,2.35
2022-10-02T04:40:56.429Z,2.28
2022-10-02T04:43:53.701Z,2.75
2022-10-02T04:46:46.310Z,2.58
2022-10-02T04:49:19.782Z,3.30
2022-10-02T04:52:02.721Z,3.13
2022-10-02T04:55:02.400Z,3.08
2022-10-02T04:57:45.623Z,2.75
2022-10-02T05:00:18.119Z,2.22
2022-10-02T05:03:03.207Z,2.70
2022-10-02T05:05:36.422Z,2.58
2022-10-02T05:08:38.354Z,2.60
2022-10-02T05:11:27.564Z,2.28
2022-10-02T05:14:33.471Z,2.45
2022-10-02T05:17:25.237Z,3.38
2022-10-02T05:20:23.146Z,2.80
2022-10-02T05:22:56.538Z,2.85
2022-10-02T05:25:56.348Z,3.13
2022-10-02T05:28:39.310Z,3.10
2022-10-02T05:31:25.078Z,2.58
2022-10-02T05:34:09.280Z,2.78
2022-10-02T05:36:54.895Z,4.00
2022-10-02T05:39:31.316Z,2.65
2022-10-02T05:42:30.580Z,2.65
2022-10-02T05:45:24.740Z,3.20
2022-10-02T05:47:55.522Z,3.05
2022-10-02T05:50:30.012Z,2.80
2022-10-02T05:53:00.215Z,2.92
2022-10-02T05:55:53.092Z,3.58
2022-10-02T05:58:34.650Z,3.03
2022-10-02T06:01:12.708Z,2.60
2022-10-02T06:06:31.889Z,3.55
2022-10-02T06:09:05.874Z,2.85
2022-10-02T06:11:46.699Z,2.65
2022-10-02T06:14:33.922Z,4.18
2022-10-02T06:17:13.240Z,3.17
2022-10-02T06:19:43.993Z,2.63
2022-10-02T06:22:18.955Z,2.70
2022-10-02T06:25:18.967Z,2.83
2022-10-02T06:28:25.400Z,2.60
2022-10-02T06:31:02.066Z,3.03
2022-10-02T06:33:32.330Z,3.20
2022-10-02T06:36:02.957Z,3.25
2022-10-02T06:38:30.476Z,3.45
2022-10-02T06:40:58.391Z,4.80
2022-10-02T06:44:01.280Z,3.05
2022-10-02T06:46:36.937Z,2.95
2022-10-02T06:49:29.955Z,2.70
2022-10-02T06:52:23.613Z,3.05
2022-10-02T06:55:23.053Z,3.25
2022-10-02T06:58:12.005Z,2.35
2022-10-02T07:00:53.357Z,3.20
2022-10-02T07:03:33.344Z,3.20
2022-10-02T07:06:07.031Z,3.08
2022-10-02T07:09:01.099Z,4.15
2022-10-02T07:11:48.451Z,2.63
2022-10-02T07:14:59.203Z,2.53
2022-10-02T07:17:52.854Z,2.90
2022-10-02T07:20:32.826Z,2.20
2022-10-02T07:23:35.075Z,3.40
2022-10-02T07:26:31.645Z,2.20
2022-10-02T07:29:10.917Z,3.65
2022-10-02T07:31:57.218Z,2.60
2022-10-02T07:34:46.574Z,2.35
2022-10-02T07:37:32.343Z,2.17
2022-10-02T07:40:12.258Z,1.98
2022-10-02T07:43:07.148Z,3.13
2022-10-02T07:45:42.128Z,1.60
2022-10-02T07:48:12.798Z,2.40
2022-10-02T07:51:00.089Z,2.25
2022-10-02T07:53:41.089Z,2.00
2022-10-02T07:56:20.051Z,2.28
2022-10-02T07:58:54.978Z,2.67
2022-10-02T08:01:32.379Z,2.50
2022-10-02T08:04:36.693Z,3.10
2022-10-02T08:07:06.583Z,2.17
2022-10-02T08:09:43.509Z,3.75
2022-10-02T08:12:41.410Z,2.65
2022-10-02T08:15:15.868Z,2.60
2022-10-02T08:18:30.203Z,3.60
2022-10-02T08:20:55.108Z,2.85
2022-10-02T08:26:04.975Z,2.83
2022-10-02T08:28:41.398Z,2.70
2022-10-02T08:31:11.417Z,2.38
2022-10-02T08:33:39.804Z,2.00
2022-10-02T08:36:26.071Z,3.38
2022-10-02T08:39:28.716Z,2.63
2022-10-02T08:42:17.912Z,2.10
2022-10-02T08:45:09.985Z,2.50
2022-10-02T08:48:15.059Z,2.83
2022-10-02T08:50:48.666Z,2.50
2022-10-02T08:53:54.362Z,2.35
2022-10-02T08:56:35.095Z,2.65
2022-10-02T08:59:26.113Z,3.80
2022-10-02T09:02:09.371Z,2.17
2022-10-02T09:05:18.968Z,2.78
2022-10-02T09:08:08.037Z,1.75
2022-10-02T09:10:59.002Z,1.98
2022-10-02T09:14:05.957Z,2.47
2022-10-02T09:16:56.770Z,2.40
2022-10-02T09:19:42.047Z,3.03
2022-10-02T09:22:45.779Z,3.10
2022-10-02T09:25:32.050Z,1.63
2022-10-02T09:28:24.401Z,3.00
2022-10-02T09:31:20.603Z,2.78
2022-10-02T09:33:54.018Z,1.88
2022-10-02T09:36:52.802Z,2.15
2022-10-02T09:39:35.525Z,2.63
2022-10-02T09:42:47.293Z,3.42
2022-10-02T09:45:27.532Z,2.20
2022-10-02T09:48:30.395Z,2.95
2022-10-02T09:51:26.266Z,3.17
2022-10-02T09:54:01.034Z,3.45
2022-10-02T09:57:06.994Z,2.83
2022-10-02T09:59:53.337Z,2.63
2022-10-02T10:02:42.353Z,2.47
2022-10-02T10:05:15.754Z,3.50
2022-10-02T10:08:12.769Z,2.42
2022-10-02T10:11:20.546Z,2.90
2022-10-02T10:14:37.082Z,3.05
2022-10-02T10:17:09.303Z,2.70
2022-10-02T10:20:06.570Z,2.65
2022-10-02T10:22:48.988Z,2.35
2022-10-02T10:25:40.708Z,3.30
2022-10-02T10:28:53.236Z,2.33
2022-10-02T10:31:59.177Z,3.28
2022-10-02T10:34:51.310Z,3.05
2022-10-02T10:38:05.753Z,3.13
2022-10-02T10:41:09.475Z,2.95
2022-10-02T10:44:14.763Z,3.38
2022-10-02T10:47:20.265Z,2.78
2022-10-02T10:50:21.123Z,2.38
2022-10-02T10:53:19.309Z,2.83
2022-10-02T10:56:09.748Z,2.85
2022-10-02T10:59:09.510Z,2.85
2022-10-02T11:01:59.412Z,3.10
2022-10-02T11:04:40.059Z,1.90
2022-10-02T11:07:46.327Z,2.50
2022-10-02T11:10:38.113Z,2.45
2022-10-02T11:13:27.489Z,1.98
2022-10-02T11:16:33.907Z,2.50
2022-10-02T11:19:19.239Z,1.83
2022-10-02T11:22:27.324Z,1.92
2022-10-02T11:25:30.348Z,2.22
2022-10-02T11:28:24.088Z,2.38
2022-10-02T11:31:00.463Z,1.35
2022-10-02T11:33:59.949Z,1.88
2022-10-02T11:36:56.123Z,2.70
2022-10-02T11:39:50.890Z,1.63
2022-10-02T11:42:42.950Z,1.63
2022-10-02T11:45:31.720Z,1.70
2022-10-02T11:48:34.731Z,1.70
2022-10-02T11:51:26.610Z,2.40
2022-10-02T11:54:17.240Z,1.15
2022-10-02T11:57:01.221Z,1.20
2022-10-02T11:59:49.387Z,1.50
2022-10-02T12:02:32.959Z,1.92
2022-10-02T12:05:25.539Z,1.50
2022-10-02T12:08:24.218Z,2.47
2022-10-02T12:11:19.935Z,2.35
2022-10-02T12:14:05.709Z,2.10
2022-10-02T12:16:52.149Z,2.80
2022-10-02T12:19:20.465Z,2.05
2022-10-02T12:22:49.404Z,2.20
2022-10-02T12:26:06.054Z,1.95
2022-10-02T12:29:05.879Z,1.85
2022-10-02T12:31:40.013Z,1.98
2022-10-02T12:34:33.282Z,2.22
2022-10-02T12:37:00.894Z,2.20
2022-10-02T12:40:01.099Z,2.00
2022-10-02T12:42:57.563Z,2.70
2022-10-02T12:45:37.482Z,1.80
2022-10-02T12:48:31.668Z,2.40
2022-10-02T12:51:36.416Z,2.30
2022-10-02T12:54:19.463Z,1.45
2022-10-02T12:57:06.003Z,2.25
2022-10-02T12:59:55.797Z,1.67
2022-10-02T13:03:01.219Z,1.80
2022-10-02T13:05:57.595Z,1.90
2022-10-02T13:08:42.882Z,1.80
2022-10-02T13:11:35.935Z,1.98
2022-10-02T13:14:13.021Z,1.58
2022-10-02T13:16:46.740Z,1.55
2022-10-02T13:19:30.615Z,1.42
2022-10-02T13:22:15.150Z,1.67
2022-10-02T13:25:00.972Z,1.85
2022-10-02T13:27:49.611Z,2.10
2022-10-02T13:30:23.071Z,2.13
2022-10-02T13:32:52.222Z,2.97
2022-10-02T13:35:29.137Z,1.10
2022-10-02T13:38:28.672Z,1.50
2022-10-02T13:41:20.907Z,0.95
2022-10-02T13:44:21.154Z,0.95
2022-10-02T13:47:11.385Z,1.45
2022-10-02T13:49:55.862Z,1.20
2022-10-02T13:52:51.340Z,1.10
2022-10-02T13:55:29.559Z,1.90
2022-10-02T13:58:18.969Z,1.23
2022-10-02T14:00:58.665Z,1.30
2022-10-02T14:03:32.413Z,1.30
2022-10-02T14:06:31.619Z,0.95
2022-10-02T14:09:28.699Z,1.20
2022-10-02T14:12:21.273Z,1.35
2022-10-02T14:15:07.120Z,1.60
2022-10-02T14:18:16.480Z,1.70
2022-10-02T14:20:55.942Z,1.00
2022-10-02T14:23:41.784Z,1.58
2022-10-02T14:26:27.333Z,1.10
2022-10-02T14:29:32.620Z,0.88
2022-10-02T14:32:09.528Z,1.48
2022-10-02T14:35:17.693Z,1.40
2022-10-02T14:37:57.847Z,1.75
2022-10-02T14:40:32.579Z,1.70
2022-10-02T14:43:15.455Z,1.38
2022-10-02T14:46:14.160Z,1.35
2022-10-02T14:49:00.524Z,0.95
2022-10-02T14:52:00.379Z,1.00
2022-10-02T14:54:37.188Z,1.17
2022-10-02T14:57:29.989Z,1.20
2022-10-02T15:00:18.661Z,1.55
2022-10-02T15:03:11.068Z,0.82
2022-10-02T15:06:00.263Z,0.85
2022-10-02T15:08:38.603Z,1.40
2022-10-02T15:11:18.416Z,1.40
2022-10-02T15:13:52.588Z,1.40
2022-10-02T15:17:15.970Z,1.63
2022-10-02T15:19:52.582Z,1.90
2022-10-02T15:22:35.951Z,1.30
2022-10-02T15:25:34.802Z,1.15
2022-10-02T15:28:35.960Z,1.10
2022-10-02T15:31:28.119Z,1.42
2022-10-02T15:34:22.124Z,1.40
2022-10-02T15:36:52.981Z,0.85
2022-10-02T15:39:20.946Z,1.73
2022-10-02T15:44:28.599Z,1.65
2022-10-02T15:47:05.486Z,2.40
2022-10-02T15:50:00.131Z,1.30
2022-10-02T15:52:36.958Z,1.25
2022-10-02T15:55:25.209Z,1.60
2022-10-02T15:57:52.788Z,1.40
2022-10-02T16:00:22.709Z,1.70
2022-10-02T16:03:28.402Z,0.80
2022-10-02T16:06:08.148Z,0.82
2022-10-02T16:08:53.892Z,1.15
2022-10-02T16:11:46.226Z,0.77
2022-10-02T16:14:34.198Z,0.98
2022-10-02T16:17:20.127Z,1.20
2022-10-02T16:20:14.077Z,1.40
2022-10-02T16:22:48.894Z,0.98
2022-10-02T16:25:16.903Z,1.23
2022-10-02T16:28:23.619Z,0.90
2022-10-02T16:31:21.097Z,1.10
2022-10-02T16:34:01.481Z,0.55
2022-10-02T16:36:38.508Z,1.75
2022-10-02T16:39:40.044Z,1.48
2022-10-02T16:42:23.016Z,1.38
2022-10-02T16:45:16.583Z,2.03
2022-10-02T16:47:50.224Z,1.88
2022-10-02T16:50:42.158Z,1.70
2022-10-02T16:53:29.649Z,1.50
2022-10-02T16:56:27.467Z,1.25
2022-10-02T16:59:19.113Z,1.00
2022-10-02T17:02:18.300Z,1.27
2022-10-02T17:04:55.172Z,1.02
2022-10-02T17:07:43.558Z,1.50
2022-10-02T17:10:33.414Z,1.00
2022-10-02T17:13:11.655Z,1.70
2022-10-02T17:15:52.277Z,1.20
2022-10-02T17:18:58.244Z,1.00
2022-10-02T17:21:44.661Z,1.45
2022-10-02T17:24:34.921Z,1.80
2022-10-02T17:27:33.536Z,1.70
2022-10-02T17:30:24.135Z,1.48
2022-10-02T17:33:07.026Z,1.30
2022-10-02T17:35:42.496Z,1.65
2022-10-02T17:38:13.347Z,1.45
2022-10-02T17:41:07.232Z,1.88
2022-10-02T17:43:56.641Z,1.90
2022-10-02T17:46:49.751Z,1.55
2022-10-02T17:49:32.699Z,3.38
2022-10-02T17:52:23.285Z,2.53
2022-10-02T17:55:42.662Z,2.33
2022-10-02T17:58:22.741Z,1.75
2022-10-02T18:01:22.133Z,2.13
2022-10-02T18:04:02.782Z,2.20
2022-10-02T18:06:45.380Z,2.63
2022-10-02T18:09:35.294Z,1.92
2022-10-02T18:12:12.172Z,2.30
2022-10-02T18:14:58.334Z,3.78
2022-10-02T18:17:44.853Z,3.53
2022-10-02T18:20:28.213Z,3.92
2022-10-02T18:23:34.995Z,4.95
2022-10-02T18:26:25.903Z,4.10
2022-10-02T18:29:32.927Z,3.92
2022-10-02T18:32:35.978Z,4.80
2022-10-02T18:35:07.577Z,5.28
2022-10-02T18:38:04.337Z,6.93
2022-10-02T18:40:56.193Z,4.03
2022-10-02T18:43:42.006Z,3.17
2022-10-02T18:46:44.086Z,3.05
2022-10-02T18:49:14.387Z,2.67
2022-10-02T18:52:27.683Z,3.35
2022-10-02T18:55:23.315Z,2.88
2022-10-02T18:58:09.770Z,5.07
2022-10-02T19:01:08.493Z,3.80
2022-10-02T19:03:52.298Z,3.70
2022-10-02T19:06:42.450Z,3.85
2022-10-02T19:09:10.066Z,4.53
2022-10-02T19:11:56.283Z,5.30
2022-10-02T19:14:35.193Z,4.55
2022-10-02T19:17:16.874Z,4.03
2022-10-02T19:19:44.938Z,5.88
2022-10-02T19:22:32.065Z,7.50
2022-10-02T19:25:07.005Z,5.57
2022-10-02T19:27:37.216Z,5.57
2022-10-02T19:30:08.157Z,5.75
2022-10-02T19:32:48.995Z,5.30
2022-10-02T19:35:19.386Z,5.97
2022-10-02T19:37:53.737Z,5.47
2022-10-02T19:40:24.832Z,5.57
2022-10-02T19:43:02.585Z,5.43
2022-10-02T19:45:33.432Z,5.82
2022-10-02T19:48:16.852Z,6.50
2022-10-02T19:50:55.354Z,5.78
2022-10-02T19:53:35.968Z,7.47
2022-10-02T19:56:35.181Z,7.32
2022-10-02T19:59:15.227Z,9.75
2022-10-02T20:01:49.014Z,7.05
2022-10-02T20:04:25.896Z,7.40
2022-10-02T20:06:56.806Z,6.00
2022-10-02T20:09:34.040Z,6.47
2022-10-02T20:12:13.017Z,7.00
2022-10-02T20:14:55.891Z,7.50
2022-10-02T20:17:24.117Z,7.97
2022-10-02T20:19:54.356Z,6.63
2022-10-02T20:22:34.578Z,6.75
2022-10-02T20:25:07.600Z,6.38
2022-10-02T20:27:56.282Z,7.28
2022-10-02T20:30:27.175Z,10.55
2022-10-02T20:33:18.222Z,11.27
2022-10-02T20:36:01.803Z,11.70
2022-10-02T20:38:37.400Z,10.23
2022-10-02T20:41:23.569Z,10.23
2022-10-02T20:44:03.123Z,11.15
2022-10-02T20:47:30.682Z,9.02
2022-10-02T20:50:13.384Z,7.63
2022-10-02T20:53:10.735Z,8.38
2022-10-02T20:56:17.632Z,8.73
2022-10-02T20:58:57.383Z,7.70
2022-10-02T21:02:08.760Z,7.75
2022-10-02T21:05:14.077Z,10.80
2022-10-02T21:08:16.196Z,9.93
2022-10-02T21:10:45.157Z,9.07
2022-10-02T21:13:24.336Z,8.93
2022-10-02T21:16:27.687Z,8.13
2022-10-02T21:19:23.095Z,7.25
2022-10-02T21:21:56.559Z,10.50
2022-10-02T21:24:43.296Z,10.65
2022-10-02T21:27:38.547Z,11.57
2022-10-02T21:30:17.906Z,10.07
2022-10-02T21:33:10.282Z,9.88
2022-10-02T21:36:09.219Z,13.30
2022-10-02T21:39:01.949Z,12.73
2022-10-02T21:42:17.757Z,10.88
2022-10-02T21:45:29.049Z,10.27
2022-10-02T21:48:21.672Z,9.80
2022-10-02T21:51:12.129Z,9.73
2022-10-02T21:54:19.034Z,11.32
2022-10-02T21:56:52.256Z,12.95
2022-10-02T21:59:21.108Z,10.02
2022-10-02T22:02:10.854Z,9.30
2022-10-02T22:04:56.225Z,9.57
2022-10-02T22:07:40.471Z,11.45
2022-10-02T22:10:29.222Z,11.05
2022-10-02T22:13:26.677Z,11.30
2022-10-02T22:16:04.289Z,11.90
2022-10-02T22:18:34.902Z,10.60
2022-10-02T22:21:34.414Z,8.85
2022-10-02T22:24:05.054Z,10.82
2022-10-02T22:26:55.469Z,10.00
2022-10-02T22:29:35.382Z,10.60
2022-10-02T22:32:27.464Z,10.80
2022-10-02T22:35:07.729Z,9.27
2022-10-02T22:37:35.674Z,9.15
2022-10-02T22:40:07.866Z,10.32
2022-10-02T22:42:57.181Z,10.65
2022-10-02T22:45:45.791Z,9.10
2022-10-02T22:48:40.328Z,10.05
2022-10-02T22:51:08.298Z,9.27
2022-10-02T22:53:46.578Z,8.50
2022-10-02T22:56:30.454Z,8.50
2022-10-02T22:59:18.679Z,9.40
2022-10-02T23:01:55.986Z,11.75
2022-10-02T23:04:24.164Z,10.77
2022-10-02T23:07:27.015Z,11.35
2022-10-02T23:10:37.755Z,12.45
2022-10-02T23:13:21.295Z,10.77
2022-10-02T23:15:54.067Z,9.18
2022-10-02T23:18:43.025Z,9.45
2022-10-02T23:21:22.291Z,9.82
2022-10-02T23:24:05.978Z,8.50
2022-10-02T23:26:37.598Z,6.38
2022-10-02T23:29:25.721Z,7.60
2022-10-02T23:32:15.193Z,7.07
2022-10-02T23:35:04.979Z,12.32
2022-10-02T23:37:41.490Z,7.18
2022-10-02T23:40:20.025Z,8.65
2022-10-02T23:42:59.205Z,7.60
2022-10-02T23:45:54.494Z,11.70
2022-10-02T23:48:22.931Z,11.00
2022-10-02T23:53:51.352Z,9.30
2022-10-02T23:56:19.312Z,9.48
2022-10-02T23:58:46.779Z,9.13
